Time;durP1;ratioP1;P1;durP2;ratioP2;P2;SDS_P1;SDS_P2;PMS_P1;PMS_P2;Temp;Humidity;BMP_temperature;BMP_pressure;BME280_temperature;BME280_humidity;BME280_pressure;Samples;Min_cycle;Max_cycle;Signal;HPM_P1;HPM_P2
2021/09/15 00:00:21;;;;;;;13.15;8.60;;;;;;;;;;8196898;28;20653;-72
2021/09/15 00:04:26;;;;;;;16.58;9.23;;;;;;;;;;8153978;28;20500;-72
2021/09/15 00:08:31;;;;;;;17.17;8.85;;;;;;;;;;8131369;28;20077;-72
2021/09/15 00:12:37;;;;;;;16.73;10.00;;;;;;;;;;8130578;28;20069;-73
2021/09/15 00:16:42;;;;;;;16.60;9.40;;;;;;;;;;8131763;28;20378;-72
2021/09/15 00:20:47;;;;;;;16.67;9.63;;;;;;;;;;8113125;28;20394;-72
2021/09/15 00:24:53;;;;;;;17.23;8.75;;;;;;;;;;8129417;28;20462;-72
2021/09/15 00:28:58;;;;;;;15.27;8.32;;;;;;;;;;8113233;28;20458;-73
2021/09/15 00:33:03;;;;;;;14.77;8.82;;;;;;;;;;8130068;28;20379;-72
2021/09/15 00:37:08;;;;;;;17.58;8.68;;;;;;;;;;8112824;28;20486;-72
2021/09/15 00:41:13;;;;;;;16.17;8.55;;;;;;;;;;8130399;28;20501;-72
2021/09/15 00:45:19;;;;;;;12.52;7.72;;;;;;;;;;8129916;28;20400;-72
2021/09/15 00:49:25;;;;;;;13.88;8.70;;;;;;;;;;8129671;28;20406;-73
2021/09/15 00:53:31;;;;;;;15.30;9.02;;;;;;;;;;8113236;28;20494;-73
2021/09/15 00:57:39;;;;;;;15.45;8.38;;;;;;;;;;8113177;28;20047;-72
2021/09/15 01:01:45;;;;;;;12.43;8.57;;;;;;;;;;8112504;28;20546;-72
2021/09/15 01:05:52;;;;;;;12.57;8.05;;;;;;;;;;8111821;28;20406;-72
2021/09/15 01:09:59;;;;;;;12.13;8.50;;;;;;;;;;8112612;28;20051;-72
2021/09/15 01:14:10;;;;;;;13.52;8.23;;;;;;;;;;8112017;28;20470;-72
2021/09/15 01:18:39;;;;;;;12.10;7.70;;;;;;;;;;8110066;28;20480;-73
2021/09/15 01:23:03;;;;;;;11.60;8.05;;;;;;;;;;8128258;28;20362;-72
2021/09/15 01:27:46;;;;;;;11.55;6.97;;;;;;;;;;8129071;28;20458;-72
2021/09/15 01:32:08;;;;;;;12.38;7.30;;;;;;;;;;8128992;28;20061;-73
2021/09/15 01:36:13;;;;;;;10.75;7.25;;;;;;;;;;8112238;28;20427;-73
2021/09/15 01:40:21;;;;;;;12.98;7.00;;;;;;;;;;8111184;28;20461;-72
2021/09/15 01:44:43;;;;;;;12.27;8.13;;;;;;;;;;8111981;28;20070;-73
2021/09/15 01:48:50;;;;;;;10.18;6.82;;;;;;;;;;8110626;28;20374;-72
2021/09/15 01:52:56;;;;;;;10.50;7.35;;;;;;;;;;8110837;28;20467;-72
2021/09/15 01:57:06;;;;;;;12.15;7.10;;;;;;;;;;8133219;28;20367;-72
2021/09/15 02:01:45;;;;;;;10.90;7.18;;;;;;;;;;8121891;28;20417;-73
2021/09/15 02:06:22;;;;;;;14.90;7.32;;;;;;;;;;8106577;28;20472;-73
2021/09/15 02:10:29;;;;;;;10.02;7.07;;;;;;;;;;8118213;28;20039;-73
2021/09/15 02:14:39;;;;;;;10.00;6.50;;;;;;;;;;8117025;28;20466;-72
2021/09/15 02:18:45;;;;;;;9.73;7.03;;;;;;;;;;8116439;28;20066;-73
2021/09/15 02:23:11;;;;;;;12.27;6.90;;;;;;;;;;8117024;28;20504;-72
2021/09/15 02:27:29;;;;;;;11.65;8.38;;;;;;;;;;8116311;28;20465;-73
2021/09/15 02:31:36;;;;;;;12.40;7.30;;;;;;;;;;8116663;28;20069;-73
2021/09/15 02:36:04;;;;;;;;;;;;;;;;;;8120987;28;20062;-72
2021/09/15 02:40:27;;;;;;;13.93;7.68;;;;;;;;;;8115472;28;20400;-73
2021/09/15 02:44:38;;;;;;;15.27;8.40;;;;;;;;;;8116157;28;20350;-74
2021/09/15 02:48:54;;;;;;;13.23;8.18;;;;;;;;;;8116307;28;20509;-72
2021/09/15 02:53:09;;;;;;;12.57;7.70;;;;;;;;;;8133144;28;20482;-73
2021/09/15 02:57:30;;;;;;;14.60;7.93;;;;;;;;;;8132724;28;20359;-72
2021/09/15 03:01:46;;;;;;;10.75;7.55;;;;;;;;;;8115583;28;20395;-73
2021/09/15 03:06:19;;;;;;;13.77;8.00;;;;;;;;;;8114899;28;20346;-73
2021/09/15 03:10:37;;;;;;;;;;;;;;;;;;8116038;28;20406;-71
2021/09/15 03:14:43;;;;;;;15.13;7.32;;;;;;;;;;8133351;28;19922;-72
2021/09/15 03:18:49;;;;;;;11.32;7.20;;;;;;;;;;8100537;28;20043;-73
2021/09/15 03:22:54;;;;;;;12.23;6.72;;;;;;;;;;8132086;28;20046;-73
2021/09/15 03:27:03;;;;;;;16.55;7.78;;;;;;;;;;8114654;28;20074;-73
2021/09/15 03:31:09;;;;;;;11.48;7.30;;;;;;;;;;8114806;28;20043;-72
2021/09/15 03:35:14;;;;;;;12.60;6.80;;;;;;;;;;8115391;28;20504;-73
2021/09/15 03:39:21;;;;;;;9.20;5.82;;;;;;;;;;8113812;28;20474;-73
2021/09/15 03:43:28;;;;;;;12.93;7.28;;;;;;;;;;8114034;28;20382;-73
2021/09/15 03:47:35;;;;;;;13.18;7.05;;;;;;;;;;8114539;28;20450;-73
2021/09/15 03:51:39;;;;;;;13.02;8.00;;;;;;;;;;8114347;28;20473;-72
2021/09/15 03:55:45;;;;;;;11.23;7.60;;;;;;;;;;8113089;28;20073;-73
2021/09/15 03:59:50;;;;;;;15.05;8.30;;;;;;;;;;8113012;28;20335;-73
2021/09/15 04:03:55;;;;;;;14.43;8.45;;;;;;;;;;8097916;28;20390;-73
2021/09/15 04:08:02;;;;;;;12.55;8.68;;;;;;;;;;8113357;28;20373;-73
2021/09/15 04:12:07;;;;;;;14.77;8.25;;;;;;;;;;8113241;28;20414;-72
2021/09/15 04:16:13;;;;;;;12.57;7.90;;;;;;;;;;8130877;28;20446;-73
2021/09/15 04:20:18;;;;;;;13.75;8.73;;;;;;;;;;8112571;28;20371;-73
2021/09/15 04:31:10;;;;;;;13.70;8.38;;;;;;;;;;8112042;28;20438;-73
2021/09/15 04:33:32;;;;;;;13.93;8.13;;;;;;;;;;8116460;28;20486;-72
2021/09/15 04:37:38;;;;;;;18.52;7.95;;;;;;;;;;8111828;28;20343;-73
2021/09/15 04:41:44;;;;;;;15.68;8.15;;;;;;;;;;8113097;28;20488;-74
2021/09/15 04:45:49;;;;;;;15.77;8.55;;;;;;;;;;8112167;28;20479;-73
2021/09/15 04:49:58;;;;;;;19.40;8.60;;;;;;;;;;8111383;28;20386;-73
2021/09/15 04:54:03;;;;;;;13.40;7.82;;;;;;;;;;8111570;28;20055;-73
2021/09/15 04:58:12;;;;;;;11.07;7.07;;;;;;;;;;8129255;28;20359;-73
2021/09/15 05:02:20;;;;;;;14.35;7.65;;;;;;;;;;8128946;28;20476;-73
2021/09/15 05:06:26;;;;;;;14.52;8.13;;;;;;;;;;8112254;28;20382;-72
2021/09/15 05:10:31;;;;;;;14.55;8.35;;;;;;;;;;8112150;28;20043;-73
2021/09/15 05:14:37;;;;;;;12.30;8.15;;;;;;;;;;8111350;28;20422;-73
2021/09/15 05:18:42;;;;;;;13.70;7.95;;;;;;;;;;8110803;28;20358;-73
2021/09/15 05:22:54;;;;;;;16.15;7.90;;;;;;;;;;8111248;28;20466;-73
2021/09/15 05:27:00;;;;;;;14.38;8.93;;;;;;;;;;8111602;28;20366;-73
2021/09/15 05:31:05;;;;;;;13.90;8.45;;;;;;;;;;8115700;28;20386;-73
2021/09/15 05:35:12;;;;;;;14.13;7.90;;;;;;;;;;8118385;28;20062;-73
2021/09/15 05:39:19;;;;;;;12.80;8.48;;;;;;;;;;8104262;28;20443;-72
2021/09/15 05:43:25;;;;;;;12.27;8.82;;;;;;;;;;8117996;28;20485;-72
2021/09/15 05:47:31;;;;;;;14.18;8.55;;;;;;;;;;8117823;28;20373;-73
2021/09/15 05:51:37;;;;;;;12.77;8.82;;;;;;;;;;8117754;28;20377;-73
2021/09/15 05:55:42;;;;;;;12.10;8.43;;;;;;;;;;8117396;28;20462;-72
2021/09/15 05:59:47;;;;;;;12.30;8.32;;;;;;;;;;8118074;28;20505;-73
2021/09/15 06:03:53;;;;;;;15.70;7.90;;;;;;;;;;8117156;28;20043;-72
2021/09/15 06:08:18;;;;;;;13.60;8.82;;;;;;;;;;8112575;28;20450;-72
2021/09/15 06:12:24;;;;;;;13.63;9.05;;;;;;;;;;8117425;28;20482;-72
2021/09/15 06:16:29;;;;;;;20.15;9.55;;;;;;;;;;8133405;28;20409;-72
2021/09/15 06:20:35;;;;;;;16.58;8.95;;;;;;;;;;8116440;28;20354;-72
2021/09/15 06:24:53;;;;;;;12.57;8.57;;;;;;;;;;8116769;28;20351;-73
2021/09/15 06:29:01;;;;;;;14.70;8.95;;;;;;;;;;8116633;28;20046;-72
2021/09/15 06:33:08;;;;;;;16.75;8.95;;;;;;;;;;8116152;28;20458;-73
2021/09/15 06:37:15;;;;;;;13.35;8.15;;;;;;;;;;8117066;28;20136;-72
2021/09/15 06:41:20;;;;;;;15.50;8.55;;;;;;;;;;8134742;28;20362;-72
2021/09/15 06:45:25;;;;;;;13.13;7.78;;;;;;;;;;8115904;28;20050;-72
2021/09/15 06:49:30;;;;;;;12.55;8.02;;;;;;;;;;8118739;28;20470;-73
2021/09/15 06:53:37;;;;;;;10.93;7.57;;;;;;;;;;8117101;28;20494;-72
2021/09/15 06:57:42;;;;;;;15.05;8.02;;;;;;;;;;8117540;28;20081;-72
2021/09/15 07:01:47;;;;;;;13.23;7.97;;;;;;;;;;8116683;28;20081;-72
2021/09/15 07:05:52;;;;;;;15.73;7.70;;;;;;;;;;8132568;28;20034;-71
2021/09/15 07:09:57;;;;;;;14.10;7.65;;;;;;;;;;8132076;28;20482;-72
2021/09/15 07:14:04;;;;;;;13.13;7.47;;;;;;;;;;8133824;28;20051;-72
2021/09/15 07:18:09;;;;;;;18.35;7.63;;;;;;;;;;8114672;28;20459;-72
2021/09/15 07:22:14;;;;;;;15.50;7.78;;;;;;;;;;8115703;28;20394;-73
2021/09/15 07:26:19;;;;;;;11.90;7.63;;;;;;;;;;8114205;28;20055;-72
2021/09/15 07:30:25;;;;;;;13.13;7.45;;;;;;;;;;8115125;28;20482;-71
2021/09/15 07:34:30;;;;;;;9.85;6.80;;;;;;;;;;8132206;28;20355;-72
2021/09/15 07:38:37;;;;;;;14.88;7.30;;;;;;;;;;8114220;28;20504;-72
2021/09/15 07:42:42;;;;;;;12.38;7.25;;;;;;;;;;8114796;28;20493;-71
2021/09/15 07:46:47;;;;;;;11.38;7.15;;;;;;;;;;8115127;28;20061;-71
2021/09/15 07:50:53;;;;;;;18.92;6.75;;;;;;;;;;8130200;28;20062;-72
2021/09/15 07:54:58;;;;;;;11.93;6.53;;;;;;;;;;8129594;28;20562;-73
2021/09/15 07:59:04;;;;;;;13.07;6.28;;;;;;;;;;8113285;28;20055;-74
2021/09/15 08:03:09;;;;;;;10.60;6.22;;;;;;;;;;8114041;28;20378;-72
2021/09/15 08:07:14;;;;;;;9.77;5.80;;;;;;;;;;8113315;28;20374;-72
2021/09/15 08:11:20;;;;;;;9.93;5.80;;;;;;;;;;8130298;28;20413;-72
2021/09/15 08:15:25;;;;;;;9.63;5.32;;;;;;;;;;8113682;28;20051;-72
2021/09/15 08:19:30;;;;;;;12.50;5.97;;;;;;;;;;8130845;28;20492;-72
2021/09/15 08:23:35;;;;;;;11.50;5.45;;;;;;;;;;8112879;28;20354;-73
2021/09/15 08:27:40;;;;;;;11.02;4.80;;;;;;;;;;8113341;28;20070;-73
2021/09/15 08:31:46;;;;;;;7.80;4.55;;;;;;;;;;8130167;28;20069;-72
2021/09/15 08:35:51;;;;;;;8.10;5.00;;;;;;;;;;8130763;28;20489;-72
2021/09/15 08:39:56;;;;;;;7.70;4.90;;;;;;;;;;8112731;28;20086;-72
2021/09/15 08:44:01;;;;;;;9.35;4.80;;;;;;;;;;8129902;28;20043;-72
2021/09/15 08:48:07;;;;;;;9.70;5.63;;;;;;;;;;8129593;28;20393;-73
2021/09/15 08:52:13;;;;;;;8.23;4.97;;;;;;;;;;8139561;28;20525;-72
2021/09/15 08:56:18;;;;;;;7.25;4.57;;;;;;;;;;8160150;28;20465;-72
2021/09/15 09:00:23;;;;;;;6.00;4.97;;;;;;;;;;8161598;28;20074;-73
2021/09/15 09:04:28;;;;;;;9.15;5.32;;;;;;;;;;8162174;28;20377;-71
2021/09/15 09:08:33;;;;;;;9.05;5.13;;;;;;;;;;8160798;28;20481;-72
2021/09/15 09:12:42;;;;;;;8.73;4.90;;;;;;;;;;8160948;28;20491;-71
2021/09/15 09:16:51;;;;;;;6.60;4.30;;;;;;;;;;8143241;28;20077;-71
2021/09/15 09:20:58;;;;;;;7.80;4.88;;;;;;;;;;8128174;28;20050;-71
2021/09/15 09:25:20;;;;;;;7.10;4.30;;;;;;;;;;8160649;28;20385;-72
2021/09/15 09:29:35;;;;;;;9.27;3.70;;;;;;;;;;8161554;28;20468;-72
2021/09/15 09:33:41;;;;;;;5.68;4.15;;;;;;;;;;8143748;28;20046;-73
2021/09/15 09:37:46;;;;;;;8.18;4.05;;;;;;;;;;8161485;28;20472;-73
2021/09/15 09:41:51;;;;;;;6.38;3.80;;;;;;;;;;8163076;28;20046;-72
2021/09/15 09:45:57;;;;;;;10.13;4.40;;;;;;;;;;8162904;28;20492;-72
2021/09/15 09:50:13;;;;;;;6.32;3.92;;;;;;;;;;8150376;28;20490;-71
2021/09/15 09:54:29;;;;;;;9.15;3.97;;;;;;;;;;8096216;28;20339;-73
2021/09/15 09:58:35;;;;;;;7.00;3.83;;;;;;;;;;8111394;28;20047;-72
2021/09/15 10:02:40;;;;;;;7.80;4.22;;;;;;;;;;8129155;28;20466;-72
2021/09/15 10:06:46;;;;;;;7.07;3.13;;;;;;;;;;8110950;28;20451;-72
2021/09/15 10:10:52;;;;;;;9.90;5.65;;;;;;;;;;8110903;28;20366;-72
2021/09/15 10:15:00;;;;;;;7.13;4.70;;;;;;;;;;8130897;28;20484;-72
2021/09/15 10:19:08;;;;;;;7.30;4.18;;;;;;;;;;8116873;28;20342;-72
2021/09/15 10:23:38;;;;;;;7.20;3.33;;;;;;;;;;8132657;28;20462;-72
2021/09/15 10:28:06;;;;;;;4.55;3.03;;;;;;;;;;8100751;28;20073;-72
2021/09/15 10:32:13;;;;;;;4.88;3.30;;;;;;;;;;8135905;28;20588;-72
2021/09/15 10:36:19;;;;;;;4.18;2.97;;;;;;;;;;8119427;28;20481;-73
2021/09/15 10:40:32;;;;;;;3.80;2.58;;;;;;;;;;8134516;28;20470;-72
2021/09/15 10:44:37;;;;;;;6.32;2.92;;;;;;;;;;8117214;28;20478;-72
2021/09/15 10:48:42;;;;;;;4.90;3.08;;;;;;;;;;8118660;28;20051;-72
2021/09/15 10:52:46;;;;;;;5.85;2.78;;;;;;;;;;8118320;28;20450;-72
2021/09/15 10:57:13;;;;;;;8.43;4.18;;;;;;;;;;8055284;28;20059;-72
2021/09/15 11:01:36;;;;;;;;;;;;;;;;;;8116935;28;20641;-72
2021/09/15 11:05:44;;;;;;;10.80;7.07;;;;;;;;;;8133598;28;20337;-72
2021/09/15 11:09:58;;;;;;;5.18;3.28;;;;;;;;;;8134923;28;20369;-72
2021/09/15 11:14:09;;;;;;;5.55;3.08;;;;;;;;;;8116757;28;20062;-73
2021/09/15 11:18:27;;;;;;;7.50;3.78;;;;;;;;;;8115647;28;20347;-72
2021/09/15 11:22:33;;;;;;;4.57;2.72;;;;;;;;;;8117305;28;20401;-72
2021/09/15 11:26:52;;;;;;;11.60;6.10;;;;;;;;;;8116825;28;20339;-72
2021/09/15 11:31:01;;;;;;;6.25;2.90;;;;;;;;;;8133112;28;20386;-72
2021/09/15 11:35:07;;;;;;;7.10;2.55;;;;;;;;;;8135014;28;20378;-73
2021/09/15 11:39:19;;;;;;;3.83;2.47;;;;;;;;;;8114614;28;20076;-72
2021/09/15 11:43:24;;;;;;;4.68;2.10;;;;;;;;;;8132723;28;20055;-72
2021/09/15 11:47:29;;;;;;;3.92;2.60;;;;;;;;;;8116371;28;20412;-72
2021/09/15 11:51:37;;;;;;;3.33;2.47;;;;;;;;;;8138542;28;20477;-72
2021/09/15 11:55:47;;;;;;;4.53;2.70;;;;;;;;;;8164030;28;20377;-72
2021/09/15 11:59:52;;;;;;;4.95;2.85;;;;;;;;;;8165570;28;20453;-72
2021/09/15 12:04:03;;;;;;;62.22;14.20;;;;;;;;;;8167076;28;20369;-71
2021/09/15 12:08:08;;;;;;;4.88;2.58;;;;;;;;;;8164878;28;20496;-72
2021/09/15 12:12:14;;;;;;;5.63;2.40;;;;;;;;;;8161875;28;20065;-72
2021/09/15 12:16:32;;;;;;;3.25;2.40;;;;;;;;;;8161251;28;20345;-71
2021/09/15 12:20:42;;;;;;;4.10;2.28;;;;;;;;;;8160673;28;20050;-72
2021/09/15 12:25:08;;;;;;;9.75;2.40;;;;;;;;;;8160545;28;20470;-72
2021/09/15 12:29:16;;;;;;;3.35;2.25;;;;;;;;;;8163613;28;20349;-71
2021/09/15 12:33:28;;;;;;;4.57;3.10;;;;;;;;;;8145218;28;20450;-72
2021/09/15 12:37:41;;;;;;;4.53;2.38;;;;;;;;;;8161629;28;20375;-72
2021/09/15 12:41:58;;;;;;;6.90;2.70;;;;;;;;;;8160300;28;20409;-73
2021/09/15 12:46:04;;;;;;;20.83;6.80;;;;;;;;;;8143517;28;20446;-72
2021/09/15 12:50:31;;;;;;;7.60;2.58;;;;;;;;;;8151165;28;20636;-72
2021/09/15 12:54:38;;;;;;;3.35;2.60;;;;;;;;;;8096845;28;20069;-72
2021/09/15 12:58:43;;;;;;;4.47;2.40;;;;;;;;;;8112336;28;20490;-72
2021/09/15 13:02:56;;;;;;;4.63;2.47;;;;;;;;;;8129628;28;20478;-72
2021/09/15 13:07:02;;;;;;;4.50;2.90;;;;;;;;;;8129232;28;20124;-72
2021/09/15 13:11:07;;;;;;;4.68;2.13;;;;;;;;;;8129417;28;20374;-71
2021/09/15 13:15:12;;;;;;;5.10;2.80;;;;;;;;;;8128862;28;20488;-72
2021/09/15 13:19:17;;;;;;;4.82;2.47;;;;;;;;;;8112585;28;20361;-71
2021/09/15 13:23:23;;;;;;;5.63;3.10;;;;;;;;;;8128725;28;20370;-71
2021/09/15 13:27:30;;;;;;;8.77;3.40;;;;;;;;;;8113241;28;20054;-71
2021/09/15 13:31:35;;;;;;;5.75;3.00;;;;;;;;;;8129190;28;20465;-71
2021/09/15 13:35:40;;;;;;;7.93;3.25;;;;;;;;;;8113733;28;20474;-72
2021/09/15 13:39:46;;;;;;;6.13;3.03;;;;;;;;;;8112614;28;20459;-72
2021/09/15 13:43:51;;;;;;;7.32;3.30;;;;;;;;;;8128296;28;20403;-72
2021/09/15 13:47:56;;;;;;;6.07;2.83;;;;;;;;;;8111782;28;20043;-72
2021/09/15 13:52:02;;;;;;;6.05;2.88;;;;;;;;;;8133083;28;20323;-72
2021/09/15 13:56:16;;;;;;;9.57;2.80;;;;;;;;;;8121187;28;20047;-72
2021/09/15 14:00:21;;;;;;;5.25;2.90;;;;;;;;;;8117433;28;20413;-72
2021/09/15 14:04:26;;;;;;;6.07;3.00;;;;;;;;;;8135025;28;20039;-71
2021/09/15 14:08:32;;;;;;;6.50;3.10;;;;;;;;;;8117895;28;20470;-72
2021/09/15 14:12:37;;;;;;;6.32;4.10;;;;;;;;;;8134240;28;20089;-72
2021/09/15 14:16:43;;;;;;;6.30;3.65;;;;;;;;;;8117315;28;20470;-72
2021/09/15 14:20:48;;;;;;;5.35;3.17;;;;;;;;;;8133507;28;20390;-71
2021/09/15 14:24:53;;;;;;;6.15;3.60;;;;;;;;;;8117872;28;20389;-72
2021/09/15 14:29:01;;;;;;;7.25;3.63;;;;;;;;;;8116864;28;20105;-72
2021/09/15 14:33:05;;;;;;;5.78;3.80;;;;;;;;;;8116262;28;20480;-72
2021/09/15 14:37:11;;;;;;;6.97;4.30;;;;;;;;;;8133838;28;20486;-72
2021/09/15 14:41:18;;;;;;;9.93;4.55;;;;;;;;;;8136432;28;20469;-73
2021/09/15 14:45:22;;;;;;;10.05;4.25;;;;;;;;;;8133995;28;20480;-72
2021/09/15 14:49:26;;;;;;;10.98;5.45;;;;;;;;;;8146979;28;20346;-72
2021/09/15 14:53:31;;;;;;;8.45;4.15;;;;;;;;;;8169555;28;20345;-72
2021/09/15 14:57:36;;;;;;;9.80;4.63;;;;;;;;;;8147340;28;20461;-72
2021/09/15 15:01:40;;;;;;;8.05;4.57;;;;;;;;;;8155257;28;20472;-72
2021/09/15 15:05:44;;;;;;;6.88;3.50;;;;;;;;;;8171373;28;20465;-73
2021/09/15 15:09:51;;;;;;;6.22;4.03;;;;;;;;;;8176628;28;20377;-71
2021/09/15 15:13:55;;;;;;;6.65;4.10;;;;;;;;;;8179356;28;20364;-71
2021/09/15 15:17:58;;;;;;;6.72;4.22;;;;;;;;;;8176864;28;20046;-71
2021/09/15 15:22:05;;;;;;;7.22;3.97;;;;;;;;;;8146895;28;20063;-72
2021/09/15 15:26:10;;;;;;;6.87;4.20;;;;;;;;;;8172759;28;20441;-72
2021/09/15 15:30:20;;;;;;;7.25;4.38;;;;;;;;;;8190282;28;20986;-72
2021/09/15 15:34:24;;;;;;;8.77;4.00;;;;;;;;;;8162329;28;20466;-72
2021/09/15 15:38:28;;;;;;;8.65;4.15;;;;;;;;;;8140439;28;20362;-72
2021/09/15 15:42:34;;;;;;;7.03;4.13;;;;;;;;;;8145224;28;20406;-72
2021/09/15 15:46:39;;;;;;;5.85;3.60;;;;;;;;;;8154356;28;20404;-72
2021/09/15 15:50:45;;;;;;;7.53;3.83;;;;;;;;;;8148694;28;20470;-71
2021/09/15 15:54:49;;;;;;;11.10;4.45;;;;;;;;;;8143907;28;20347;-72
2021/09/15 15:58:55;;;;;;;11.65;4.05;;;;;;;;;;8176923;28;20358;-72
2021/09/15 16:03:00;;;;;;;16.38;7.93;;;;;;;;;;8183886;28;20362;-72
2021/09/15 16:07:05;;;;;;;13.63;7.00;;;;;;;;;;8173630;28;20042;-72
2021/09/15 16:11:09;;;;;;;13.15;7.50;;;;;;;;;;8152668;28;20061;-71
2021/09/15 16:15:14;;;;;;;12.77;7.25;;;;;;;;;;8145110;28;20381;-71
2021/09/15 16:19:18;;;;;;;12.57;7.03;;;;;;;;;;8176577;28;20453;-71
2021/09/15 16:23:24;;;;;;;27.88;14.75;;;;;;;;;;8177386;28;20050;-72
2021/09/15 16:27:29;;;;;;;31.30;16.40;;;;;;;;;;8160607;28;20349;-72
2021/09/15 16:31:34;;;;;;;23.00;11.90;;;;;;;;;;8176104;28;20468;-71
2021/09/15 16:35:38;;;;;;;18.80;10.27;;;;;;;;;;8176696;28;20346;-71
2021/09/15 16:39:42;;;;;;;22.48;10.68;;;;;;;;;;8177194;28;20483;-71
2021/09/15 16:43:47;;;;;;;17.85;9.18;;;;;;;;;;8138741;28;20051;-71
2021/09/15 16:47:51;;;;;;;20.48;8.40;;;;;;;;;;8162253;28;20496;-73
2021/09/15 16:51:55;;;;;;;15.13;9.35;;;;;;;;;;8157748;28;20057;-71
2021/09/15 16:56:00;;;;;;;11.85;6.22;;;;;;;;;;8143300;28;20046;-71
2021/09/15 17:00:09;;;;;;;12.07;6.22;;;;;;;;;;8158910;28;20065;-71
2021/09/15 17:04:14;;;;;;;12.25;5.45;;;;;;;;;;8161253;28;20474;-71
2021/09/15 17:08:18;;;;;;;12.25;5.60;;;;;;;;;;8128028;28;20069;-72
2021/09/15 17:12:23;;;;;;;11.02;6.18;;;;;;;;;;8162671;28;20046;-72
2021/09/15 17:16:28;;;;;;;11.25;6.30;;;;;;;;;;8163099;28;20385;-72
2021/09/15 17:20:36;;;;;;;12.48;6.30;;;;;;;;;;8165717;28;20458;-71
2021/09/15 17:24:46;;;;;;;11.80;6.47;;;;;;;;;;8175746;28;20046;-71
2021/09/15 17:28:51;;;;;;;15.77;7.82;;;;;;;;;;8177013;28;20050;-71
2021/09/15 17:32:56;;;;;;;14.68;8.48;;;;;;;;;;8162149;28;20408;-72
2021/09/15 17:37:02;;;;;;;14.60;8.85;;;;;;;;;;8170809;28;20072;-71
2021/09/15 17:41:07;;;;;;;17.08;10.05;;;;;;;;;;8160772;28;20038;-71
2021/09/15 17:45:12;;;;;;;20.45;10.95;;;;;;;;;;8158155;28;20469;-71
2021/09/15 17:49:16;;;;;;;24.23;10.63;;;;;;;;;;8142147;28;20484;-71
2021/09/15 17:53:20;;;;;;;22.58;10.98;;;;;;;;;;8160882;28;20409;-71
2021/09/15 17:57:25;;;;;;;23.23;11.90;;;;;;;;;;8163542;28;20348;-71
2021/09/15 18:01:29;;;;;;;28.77;13.68;;;;;;;;;;8172461;28;20536;-71
2021/09/15 18:05:34;;;;;;;27.70;12.32;;;;;;;;;;8171301;28;20495;-71
2021/09/15 18:09:40;;;;;;;32.45;13.30;;;;;;;;;;8171030;28;20458;-71
2021/09/15 18:13:44;;;;;;;28.17;12.75;;;;;;;;;;8174626;28;20335;-72
2021/09/15 18:17:50;;;;;;;28.20;15.07;;;;;;;;;;8159489;28;20513;-71
2021/09/15 18:21:55;;;;;;;33.78;15.85;;;;;;;;;;8126426;28;20046;-71
2021/09/15 18:26:01;;;;;;;34.50;17.83;;;;;;;;;;8165310;28;20355;-71
2021/09/15 18:30:08;;;;;;;33.33;17.83;;;;;;;;;;8006828;28;5001661;-71
2021/09/15 18:34:13;;;;;;;39.83;20.07;;;;;;;;;;8175801;28;20066;-72
2021/09/15 18:38:19;;;;;;;48.58;24.25;;;;;;;;;;8195043;28;20365;-71
2021/09/15 18:42:24;;;;;;;38.67;20.52;;;;;;;;;;8199765;28;20499;-72
2021/09/15 18:46:32;;;;;;;40.63;17.63;;;;;;;;;;8179128;28;20470;-71
2021/09/15 18:50:38;;;;;;;34.80;20.50;;;;;;;;;;8212304;28;20525;-71
2021/09/15 18:54:44;;;;;;;32.20;17.50;;;;;;;;;;8213384;28;20452;-72
2021/09/15 18:58:49;;;;;;;40.17;19.92;;;;;;;;;;8229673;28;20457;-71
2021/09/15 19:02:54;;;;;;;38.83;18.70;;;;;;;;;;8212846;28;20357;-71
2021/09/15 19:07:00;;;;;;;35.70;17.27;;;;;;;;;;8230011;28;20477;-72
2021/09/15 19:11:05;;;;;;;37.15;20.15;;;;;;;;;;8211536;28;20484;-72
2021/09/15 19:15:12;;;;;;;41.28;20.30;;;;;;;;;;8229243;28;20481;-72
2021/09/15 19:19:18;;;;;;;38.63;19.67;;;;;;;;;;8230038;28;20476;-71
2021/09/15 19:23:23;;;;;;;41.40;17.85;;;;;;;;;;8211174;28;20364;-73
2021/09/15 19:27:28;;;;;;;35.35;18.80;;;;;;;;;;8229152;28;20376;-72
2021/09/15 19:31:34;;;;;;;29.15;16.48;;;;;;;;;;8211627;28;20071;-71
2021/09/15 19:35:39;;;;;;;29.52;15.35;;;;;;;;;;8210825;28;20084;-71
2021/09/15 19:39:45;;;;;;;35.03;15.50;;;;;;;;;;8211232;28;20384;-72
2021/09/15 19:43:51;;;;;;;25.30;14.25;;;;;;;;;;8229329;28;20480;-72
2021/09/15 19:47:56;;;;;;;27.55;14.93;;;;;;;;;;8210463;28;20377;-71
2021/09/15 19:52:01;;;;;;;28.83;15.15;;;;;;;;;;8193120;28;20476;-71
2021/09/15 19:56:12;;;;;;;28.70;13.73;;;;;;;;;;8210267;28;20325;-71
2021/09/15 20:00:18;;;;;;;29.38;15.00;;;;;;;;;;8228093;28;20482;-71
2021/09/15 20:04:24;;;;;;;26.20;13.38;;;;;;;;;;8211093;28;20449;-72
2021/09/15 20:08:29;;;;;;;25.63;13.02;;;;;;;;;;8226747;28;20380;-71
2021/09/15 20:12:36;;;;;;;30.48;12.35;;;;;;;;;;8229084;28;20452;-72
2021/09/15 20:16:41;;;;;;;23.48;12.10;;;;;;;;;;8210737;28;20380;-71
2021/09/15 20:20:47;;;;;;;27.00;12.98;;;;;;;;;;8226557;28;20491;-72
2021/09/15 20:24:52;;;;;;;20.73;11.68;;;;;;;;;;8226113;28;20479;-71
2021/09/15 20:28:57;;;;;;;18.92;10.95;;;;;;;;;;8226729;28;20352;-71
2021/09/15 20:33:03;;;;;;;21.45;11.57;;;;;;;;;;8193228;28;20468;-72
2021/09/15 20:37:08;;;;;;;22.95;11.05;;;;;;;;;;8226111;28;20322;-72
2021/09/15 20:41:14;;;;;;;23.17;10.82;;;;;;;;;;8226516;28;20042;-71
2021/09/15 20:45:20;;;;;;;19.83;10.63;;;;;;;;;;8226708;28;20364;-72
2021/09/15 20:49:26;;;;;;;17.23;10.23;;;;;;;;;;8226638;28;20380;-71
2021/09/15 20:53:31;;;;;;;19.08;9.90;;;;;;;;;;8226253;28;20380;-72
2021/09/15 20:57:36;;;;;;;17.48;10.82;;;;;;;;;;8211519;28;20364;-72
2021/09/15 21:01:42;;;;;;;21.00;10.35;;;;;;;;;;8209324;28;20472;-71
2021/09/15 21:05:47;;;;;;;17.45;10.20;;;;;;;;;;8224900;28;20516;-70
2021/09/15 21:09:52;;;;;;;16.58;9.20;;;;;;;;;;8226172;28;20075;-72
2021/09/15 21:13:57;;;;;;;21.02;9.85;;;;;;;;;;8208152;28;20500;-71
2021/09/15 21:18:03;;;;;;;18.33;10.43;;;;;;;;;;8208402;28;20464;-72
2021/09/15 21:22:08;;;;;;;19.73;9.35;;;;;;;;;;8225647;28;20508;-72
2021/09/15 21:26:13;;;;;;;17.10;9.65;;;;;;;;;;8225103;28;20333;-71
2021/09/15 21:30:22;;;;;;;18.00;9.75;;;;;;;;;;8225183;28;20484;-71
2021/09/15 21:34:28;;;;;;;19.60;9.82;;;;;;;;;;8208406;28;20357;-72
2021/09/15 21:38:33;;;;;;;20.63;10.52;;;;;;;;;;8207966;28;20377;-71
2021/09/15 21:42:38;;;;;;;15.77;9.73;;;;;;;;;;8191647;28;20345;-72
2021/09/15 21:46:43;;;;;;;17.92;9.77;;;;;;;;;;8208141;28;20495;-71
2021/09/15 21:50:49;;;;;;;20.02;10.25;;;;;;;;;;8226016;28;20363;-72
2021/09/15 21:54:54;;;;;;;19.65;9.95;;;;;;;;;;8208744;28;20441;-71
2021/09/15 21:58:59;;;;;;;18.60;10.40;;;;;;;;;;8224212;28;20457;-71
2021/09/15 22:03:04;;;;;;;21.90;10.27;;;;;;;;;;8208229;28;20341;-71
2021/09/15 22:07:09;;;;;;;18.02;9.38;;;;;;;;;;8224725;28;20471;-72
2021/09/15 22:11:14;;;;;;;18.58;10.27;;;;;;;;;;8226387;28;20448;-71
2021/09/15 22:15:20;;;;;;;19.52;10.13;;;;;;;;;;8232306;28;20487;-72
2021/09/15 22:19:25;;;;;;;17.38;9.55;;;;;;;;;;8214208;28;20475;-71
2021/09/15 22:23:31;;;;;;;19.85;10.35;;;;;;;;;;8231585;28;20380;-72
2021/09/15 22:27:36;;;;;;;18.08;10.32;;;;;;;;;;8212982;28;20330;-71
2021/09/15 22:31:42;;;;;;;17.95;9.43;;;;;;;;;;8213008;28;20356;-72
2021/09/15 22:35:47;;;;;;;21.23;10.23;;;;;;;;;;8231207;28;20641;-71
2021/09/15 22:39:52;;;;;;;20.27;11.13;;;;;;;;;;8230239;28;20450;-72
2021/09/15 22:43:57;;;;;;;18.30;10.23;;;;;;;;;;8229583;28;20461;-72
2021/09/15 22:48:03;;;;;;;18.38;9.65;;;;;;;;;;8229829;28;20395;-72
2021/09/15 22:52:08;;;;;;;18.85;10.15;;;;;;;;;;8211585;28;20061;-72
2021/09/15 22:56:13;;;;;;;18.17;9.85;;;;;;;;;;8229603;28;20461;-73
2021/09/15 23:00:18;;;;;;;16.50;10.05;;;;;;;;;;8212509;28;20484;-72
2021/09/15 23:04:25;;;;;;;17.77;9.95;;;;;;;;;;8212738;28;20377;-71
2021/09/15 23:08:30;;;;;;;20.08;10.52;;;;;;;;;;8231314;28;20325;-71
2021/09/15 23:12:36;;;;;;;18.33;10.43;;;;;;;;;;8210393;28;20053;-72
2021/09/15 23:16:41;;;;;;;19.58;10.27;;;;;;;;;;8229184;28;20104;-71
2021/09/15 23:20:47;;;;;;;14.93;9.50;;;;;;;;;;8211709;28;20049;-72
2021/09/15 23:24:53;;;;;;;17.92;10.38;;;;;;;;;;8209812;28;20399;-72
2021/09/15 23:28:59;;;;;;;17.73;10.15;;;;;;;;;;8195828;28;20077;-71
2021/09/15 23:33:04;;;;;;;17.20;10.00;;;;;;;;;;8229036;28;20495;-72
2021/09/15 23:37:10;;;;;;;16.38;9.95;;;;;;;;;;8211749;28;20400;-71
2021/09/15 23:41:15;;;;;;;21.05;10.90;;;;;;;;;;8211775;28;20050;-71
2021/09/15 23:45:21;;;;;;;22.60;10.38;;;;;;;;;;8226363;28;20490;-72
2021/09/15 23:49:26;;;;;;;20.48;10.20;;;;;;;;;;8227373;28;20472;-72
2021/09/15 23:53:29;;;;;;;20.10;9.77;;;;;;;;;;8228386;28;20333;-71
2021/09/15 23:57:35;;;;;;;19.02;10.93;;;;;;;;;;8194626;28;20474;-71
